Time;durP1;ratioP1;P1;durP2;ratioP2;P2;SDS_P1;SDS_P2;PMS_P1;PMS_P2;Temp;Humidity;BMP_temperature;BMP_pressure;BME280_temperature;BME280_humidity;BME280_pressure;Samples;Min_cycle;Max_cycle;Signal;HPM_P1;HPM_P2
2021/08/06 00:00:56;;;;;;;2.58;1.30;;;;;;;12.19;100.00;93932.75;5054827;28;20081;-61
2021/08/06 00:03:25;;;;;;;3.45;1.23;;;;;;;12.21;100.00;93928.97;5055436;28;20025;-61
2021/08/06 00:05:54;;;;;;;2.38;1.60;;;;;;;12.22;100.00;93919.81;5072316;28;20502;-61
2021/08/06 00:08:32;;;;;;;1.73;1.20;;;;;;;12.22;100.00;93925.97;5073030;28;20020;-55
2021/08/06 00:11:04;;;;;;;2.08;1.30;;;;;;;12.23;100.00;93919.50;5072499;28;20059;-60
2021/08/06 00:13:30;;;;;;;1.50;1.40;;;;;;;12.28;100.00;93913.25;5054738;28;20021;-57
2021/08/06 00:16:03;;;;;;;4.28;1.30;;;;;;;12.33;100.00;93913.13;5072665;28;20036;-59
2021/08/06 00:18:28;;;;;;;1.98;1.38;;;;;;;12.36;100.00;93899.06;5054405;28;20040;-59
2021/08/06 00:21:06;;;;;;;1.80;1.30;;;;;;;12.40;100.00;93892.00;5072588;28;20028;-56
2021/08/06 00:23:33;;;;;;;3.85;1.58;;;;;;;12.41;100.00;93883.66;5054444;28;20027;-56
2021/08/06 00:26:10;;;;;;;1.65;1.30;;;;;;;12.44;100.00;93876.88;5072407;28;20111;-55
2021/08/06 00:28:38;;;;;;;1.95;1.50;;;;;;;12.47;100.00;93873.56;5072277;28;20028;-58
2021/08/06 00:31:06;;;;;;;1.65;1.40;;;;;;;12.50;100.00;93870.28;5072470;28;20043;-57
2021/08/06 00:36:17;;;;;;;1.67;1.42;;;;;;;12.55;100.00;93858.59;5058726;28;20031;-56
2021/08/06 00:38:47;;;;;;;3.15;1.40;;;;;;;12.57;100.00;93853.72;5072399;28;20016;-58
2021/08/06 00:41:13;;;;;;;2.65;1.48;;;;;;;12.58;100.00;93844.56;5038183;28;20016;-59
2021/08/06 00:43:38;;;;;;;2.92;1.50;;;;;;;12.60;100.00;93851.22;5072314;28;20035;-62
2021/08/06 00:46:04;;;;;;;1.60;1.48;;;;;;;12.63;100.00;93849.81;5072383;28;20024;-61
2021/08/06 00:48:29;;;;;;;1.52;1.42;;;;;;;12.65;100.00;93845.72;5071945;28;20028;-62
2021/08/06 00:50:58;;;;;;;2.15;1.40;;;;;;;12.67;100.00;93838.13;5072092;28;20108;-62
2021/08/06 00:53:24;;;;;;;4.25;1.42;;;;;;;12.68;100.00;93845.09;5054317;28;20475;-60
2021/08/06 00:55:50;;;;;;;4.65;1.70;;;;;;;12.68;100.00;93830.88;5072115;28;20029;-59
2021/08/06 00:58:18;;;;;;;3.03;1.45;;;;;;;12.70;100.00;93832.16;5072148;28;20028;-60
2021/08/06 01:00:48;;;;;;;2.13;1.38;;;;;;;12.72;100.00;93829.97;5072111;28;20029;-61
2021/08/06 01:03:36;;;;;;;1.95;1.50;;;;;;;12.73;100.00;93823.50;5054005;28;20051;-59
2021/08/06 01:06:16;;;;;;;2.42;1.42;;;;;;;12.74;100.00;93824.28;5072215;28;20104;-61
2021/08/06 01:09:03;;;;;;;1.60;1.30;;;;;;;12.76;100.00;93822.88;5054040;28;20078;-61
2021/08/06 01:11:35;;;;;;;2.15;1.45;;;;;;;12.78;100.00;93826.03;5071897;28;20078;-61
2021/08/06 01:14:11;;;;;;;3.67;1.13;;;;;;;12.78;100.00;93819.84;5072209;28;20426;-58
2021/08/06 01:16:42;;;;;;;2.30;1.40;;;;;;;12.80;100.00;93825.72;5071754;28;20044;-59
2021/08/06 01:19:26;;;;;;;4.22;1.40;;;;;;;12.83;100.00;93809.00;5072035;28;20410;-57
2021/08/06 01:22:07;;;;;;;1.50;1.40;;;;;;;12.85;100.00;93808.69;5071927;28;20530;-59
2021/08/06 01:24:35;;;;;;;1.67;1.20;;;;;;;12.87;100.00;93809.16;5054025;28;20391;-59
2021/08/06 01:27:03;;;;;;;2.88;1.45;;;;;;;12.87;100.00;93806.47;5071823;28;20052;-59
2021/08/06 01:29:36;;;;;;;3.75;1.30;;;;;;;12.86;100.00;93802.19;5037196;28;20031;-61
2021/08/06 01:32:02;;;;;;;2.08;1.08;;;;;;;12.86;100.00;93810.25;5071908;28;20032;-60
2021/08/06 01:34:36;;;;;;;1.60;1.42;;;;;;;12.86;100.00;93811.06;5052901;28;20124;-62
2021/08/06 01:37:02;;;;;;;2.42;1.30;;;;;;;12.85;100.00;93806.00;5060526;28;20020;-62
2021/08/06 01:39:30;;;;;;;4.88;1.33;;;;;;;12.85;100.00;93812.16;5053606;28;20021;-61
2021/08/06 01:42:22;;;;;;;3.28;1.50;;;;;;;12.84;100.00;93802.50;5053875;28;20028;-62
2021/08/06 01:44:53;;;;;;;1.42;1.30;;;;;;;12.85;100.00;93808.69;5053836;28;20025;-62
2021/08/06 01:47:41;;;;;;;2.70;1.70;;;;;;;12.85;100.00;93806.00;5071594;28;20027;-62
2021/08/06 01:50:14;;;;;;;2.65;1.52;;;;;;;12.87;100.00;93807.25;5053688;28;20090;-61
2021/08/06 01:53:03;;;;;;;2.80;1.30;;;;;;;12.89;100.00;93802.38;5071793;28;20017;-61
2021/08/06 01:55:39;;;;;;;2.80;1.30;;;;;;;12.91;100.00;93802.06;5071631;28;20033;-61
2021/08/06 01:58:05;;;;;;;1.85;1.30;;;;;;;12.91;100.00;93797.47;5072024;28;20031;-59
2021/08/06 02:00:34;;;;;;;1.58;1.42;;;;;;;12.93;100.00;93805.25;5057203;28;20024;-62
2021/08/06 02:03:07;;;;;;;2.22;1.40;;;;;;;12.94;100.00;93796.06;5057256;28;20021;-60
2021/08/06 02:05:35;;;;;;;1.52;1.40;;;;;;;12.96;100.00;93793.88;5075050;28;20129;-62
2021/08/06 02:08:04;;;;;;;2.35;1.60;;;;;;;12.94;100.00;93799.56;5075087;28;20032;-60
2021/08/06 02:10:33;;;;;;;2.20;1.70;;;;;;;12.95;100.00;93794.97;5074917;28;20028;-60
2021/08/06 02:13:07;;;;;;;2.97;1.48;;;;;;;12.93;100.00;93792.59;5057057;28;20024;-59
2021/08/06 02:15:35;;;;;;;1.50;1.40;;;;;;;12.91;100.00;93783.25;5074678;28;20506;-59
2021/08/06 02:18:01;;;;;;;4.20;1.52;;;;;;;12.90;100.00;93785.13;5073922;28;20052;-61
2021/08/06 02:20:34;;;;;;;3.22;1.40;;;;;;;12.90;100.00;93785.13;5074754;28;20108;-61
2021/08/06 02:23:04;;;;;;;1.83;1.20;;;;;;;12.89;100.00;93780.88;5074801;28;20040;-61
2021/08/06 02:25:31;;;;;;;2.72;1.20;;;;;;;12.89;100.00;93782.75;5074807;28;20552;-61
2021/08/06 02:28:04;;;;;;;1.20;1.10;;;;;;;12.88;100.00;93784.66;5074614;28;20035;-62
2021/08/06 02:30:32;;;;;;;2.70;1.27;;;;;;;12.87;100.00;93779.59;5074566;28;20024;-62
2021/08/06 02:32:59;;;;;;;1.73;1.48;;;;;;;12.87;100.00;93771.53;5061191;28;20020;-59
2021/08/06 02:35:25;;;;;;;2.67;1.08;;;;;;;12.88;100.00;93775.81;5048140;28;20697;-59
2021/08/06 02:37:51;;;;;;;1.83;1.30;;;;;;;12.87;100.00;93774.22;5069973;28;20024;-57
2021/08/06 02:40:19;;;;;;;4.00;1.20;;;;;;;12.87;100.00;93768.84;5056650;28;20479;-55
2021/08/06 02:42:49;;;;;;;5.40;1.70;;;;;;;12.88;100.00;93767.75;5056427;28;20029;-59
2021/08/06 02:45:15;;;;;;;2.13;1.20;;;;;;;12.88;100.00;93767.75;5074234;28;20028;-54
2021/08/06 02:47:45;;;;;;;1.52;1.30;;;;;;;12.89;100.00;93767.44;5056255;28;20039;-57
2021/08/06 02:50:11;;;;;;;1.55;1.33;;;;;;;12.89;100.00;93769.31;5056462;28;20029;-55
2021/08/06 02:52:42;;;;;;;4.55;1.25;;;;;;;12.88;100.00;93776.59;5056328;28;20021;-58
2021/08/06 02:55:11;;;;;;;3.30;1.30;;;;;;;12.86;100.00;93772.66;5074134;28;20036;-56
2021/08/06 02:57:38;;;;;;;2.03;1.35;;;;;;;12.83;100.00;93767.91;5056018;28;20020;-62
2021/08/06 03:00:05;;;;;;;1.40;1.30;;;;;;;12.82;100.00;93772.47;5056122;28;20418;-59
2021/08/06 03:02:32;;;;;;;6.53;1.40;;;;;;;12.82;100.00;93769.00;5074081;28;20082;-59
2021/08/06 03:05:00;;;;;;;3.22;1.10;;;;;;;12.81;100.00;93764.72;5056143;28;20027;-61
2021/08/06 03:07:28;;;;;;;2.38;1.10;;;;;;;12.80;100.00;93773.88;5073804;28;20024;-61
2021/08/06 03:09:56;;;;;;;2.95;1.30;;;;;;;12.80;100.00;93776.56;5073623;28;20047;-59
2021/08/06 03:12:28;;;;;;;3.63;1.20;;;;;;;12.78;100.00;93774.97;5055936;28;20036;-59
2021/08/06 03:14:53;;;;;;;1.55;1.10;;;;;;;12.76;100.00;93779.09;5073572;28;20032;-60
2021/08/06 03:17:19;;;;;;;1.73;1.20;;;;;;;12.73;100.00;93779.72;5073416;28;20054;-59
2021/08/06 03:19:45;;;;;;;2.75;1.30;;;;;;;12.71;100.00;93780.03;5074023;28;20016;-59
2021/08/06 03:22:18;;;;;;;3.30;1.10;;;;;;;12.70;100.00;93774.97;5055715;28;20112;-54
2021/08/06 03:24:44;;;;;;;2.35;0.98;;;;;;;12.73;100.00;93775.13;5073366;28;20419;-60
2021/08/06 03:27:12;;;;;;;4.03;1.30;;;;;;;12.74;100.00;93776.72;5066105;28;20033;-59
2021/08/06 03:29:37;;;;;;;3.13;1.30;;;;;;;12.76;100.00;93789.81;5067833;28;20025;-56
2021/08/06 03:32:06;;;;;;;1.85;1.30;;;;;;;12.77;100.00;93794.88;5073571;28;20044;-57
2021/08/06 03:34:40;;;;;;;1.98;1.30;;;;;;;12.78;100.00;93798.38;5054251;28;20109;-56
2021/08/06 03:37:06;;;;;;;1.92;1.30;;;;;;;12.77;100.00;93802.16;5062398;28;20111;-56
2021/08/06 03:39:39;;;;;;;3.25;1.50;;;;;;;12.79;100.00;93794.56;5053211;28;20502;-56
2021/08/06 03:42:04;;;;;;;4.07;1.63;;;;;;;12.81;100.00;93791.56;5045505;28;20033;-59
2021/08/06 03:44:30;;;;;;;4.15;1.38;;;;;;;12.83;100.00;93800.13;5053196;28;20028;-60
2021/08/06 03:46:55;;;;;;;2.10;1.50;;;;;;;12.84;100.00;93796.34;5035370;28;20110;-57
2021/08/06 03:49:20;;;;;;;4.22;1.50;;;;;;;12.84;100.00;93797.13;5035094;28;20399;-58
2021/08/06 03:51:49;;;;;;;1.25;1.10;;;;;;;12.86;100.00;93800.31;5018907;28;20035;-60
2021/08/06 03:54:14;;;;;;;2.53;1.60;;;;;;;12.88;100.00;93798.09;5035397;28;20024;-62
2021/08/06 03:56:40;;;;;;;2.90;1.77;;;;;;;12.89;100.00;93799.69;5035163;28;20027;-60
2021/08/06 03:59:05;;;;;;;4.32;1.48;;;;;;;12.89;100.00;93810.44;5052969;28;20032;-58
2021/08/06 04:01:37;;;;;;;1.63;1.20;;;;;;;12.89;100.00;93806.94;5053215;28;20025;-58
2021/08/06 04:04:11;;;;;;;1.98;1.40;;;;;;;12.91;100.00;93818.19;5035027;28;20029;-60
2021/08/06 04:06:39;;;;;;;2.88;1.40;;;;;;;12.93;100.00;93818.69;5034726;28;20110;-58
2021/08/06 04:09:08;;;;;;;2.20;1.67;;;;;;;12.94;100.00;93818.38;5052679;28;20048;-58
2021/08/06 04:11:33;;;;;;;2.70;1.45;;;;;;;12.96;100.00;93815.38;5052851;28;20107;-58
2021/08/06 04:14:14;;;;;;;2.75;1.77;;;;;;;13.00;100.00;93813.63;5034876;28;20116;-58
2021/08/06 04:16:42;;;;;;;3.60;1.73;;;;;;;13.10;100.00;93809.88;5031039;28;20056;-60
2021/08/06 04:19:08;;;;;;;2.90;1.80;;;;;;;13.19;100.00;93816.09;5031928;28;20017;-62
2021/08/06 04:21:36;;;;;;;3.55;1.73;;;;;;;13.25;100.00;93828.31;5030829;28;20040;-62
2021/08/06 04:24:05;;;;;;;2.13;1.70;;;;;;;13.30;100.00;93834.34;5031311;28;20461;-62
2021/08/06 04:26:42;;;;;;;1.83;1.48;;;;;;;13.33;100.00;93832.91;5032507;28;20025;-62
2021/08/06 04:29:08;;;;;;;3.67;1.88;;;;;;;13.37;100.00;93847.34;5031316;28;20018;-60
2021/08/06 04:31:33;;;;;;;3.90;1.73;;;;;;;13.39;100.00;93847.81;5032393;28;20028;-60
2021/08/06 04:33:59;;;;;;;2.40;2.10;;;;;;;13.42;100.00;93857.16;5031442;28;20481;-61
2021/08/06 04:36:24;;;;;;;4.85;2.00;;;;;;;13.41;100.00;93847.50;5035614;28;20025;-60
2021/08/06 04:38:49;;;;;;;3.92;2.03;;;;;;;13.43;100.00;93854.13;5051111;28;20029;-60
2021/08/06 04:41:15;;;;;;;2.00;1.67;;;;;;;13.43;100.00;93839.91;5052244;28;20082;-61
2021/08/06 04:43:43;;;;;;;4.47;1.75;;;;;;;13.45;100.00;93846.53;5052321;28;20083;-61
2021/08/06 04:46:15;;;;;;;2.70;1.85;;;;;;;13.44;100.00;93841.47;5052041;28;20434;-61
2021/08/06 04:48:40;;;;;;;3.50;2.00;;;;;;;13.45;100.00;93832.31;5051200;28;20400;-61
2021/08/06 04:51:08;;;;;;;4.25;1.88;;;;;;;13.46;100.00;93825.81;5052100;28;20025;-61
2021/08/06 04:53:34;;;;;;;3.05;1.90;;;;;;;13.46;100.00;93847.34;5050923;28;20107;-61
2021/08/06 04:56:02;;;;;;;2.40;2.00;;;;;;;13.46;100.00;93845.47;5050795;28;20035;-61
2021/08/06 04:58:35;;;;;;;2.83;2.20;;;;;;;13.48;100.00;93847.84;5051870;28;20029;-60
2021/08/06 05:01:04;;;;;;;4.25;1.80;;;;;;;13.49;100.00;93854.81;5050859;28;20384;-58
2021/08/06 05:03:32;;;;;;;2.75;1.90;;;;;;;13.50;100.00;93849.09;5050914;28;20016;-60
2021/08/06 05:05:57;;;;;;;4.47;1.80;;;;;;;13.52;100.00;93843.41;5052162;28;20544;-61
2021/08/06 05:08:32;;;;;;;2.30;2.10;;;;;;;13.54;100.00;93854.63;5051995;28;20052;-61
2021/08/06 05:10:57;;;;;;;3.08;2.30;;;;;;;13.55;100.00;93850.84;5049408;28;20110;-61
2021/08/06 05:13:23;;;;;;;4.10;1.70;;;;;;;13.58;100.00;93842.16;5051854;28;20029;-60
2021/08/06 05:15:48;;;;;;;2.20;2.00;;;;;;;13.61;100.00;93846.91;5052031;28;20083;-61
2021/08/06 05:18:13;;;;;;;2.50;1.80;;;;;;;13.61;100.00;93845.00;5068420;28;20079;-61
2021/08/06 05:20:46;;;;;;;5.13;1.75;;;;;;;13.66;100.00;93840.56;5053747;28;20020;-61
2021/08/06 05:23:12;;;;;;;2.25;1.65;;;;;;;13.68;100.00;93847.25;5072004;28;20025;-61
2021/08/06 05:25:37;;;;;;;2.30;1.80;;;;;;;13.72;100.00;93845.50;5071787;28;20028;-59
2021/08/06 05:28:05;;;;;;;2.13;1.70;;;;;;;13.75;100.00;93842.19;5071701;28;20025;-62
2021/08/06 05:30:33;;;;;;;2.55;1.73;;;;;;;13.83;100.00;93848.69;5054269;28;20024;-61
2021/08/06 05:32:58;;;;;;;2.85;1.77;;;;;;;13.89;100.00;93850.09;5071923;28;20383;-58
2021/08/06 05:35:27;;;;;;;2.38;1.70;;;;;;;13.94;100.00;93833.81;5049253;28;20074;-61
2021/08/06 05:37:54;;;;;;;2.67;1.85;;;;;;;13.99;100.00;93833.66;5071057;28;20020;-61
2021/08/06 05:40:22;;;;;;;2.78;1.90;;;;;;;14.05;100.00;93848.56;5075409;28;20024;-61
2021/08/06 05:42:49;;;;;;;2.72;2.00;;;;;;;14.07;100.00;93832.88;5057481;28;20017;-61
2021/08/06 05:45:17;;;;;;;6.07;2.83;;;;;;;14.08;100.00;93841.72;5057560;28;20025;-61
2021/08/06 05:47:53;;;;;;;2.17;1.80;;;;;;;14.12;100.00;93835.41;5057462;28;20021;-62
2021/08/06 05:50:22;;;;;;;1.98;1.77;;;;;;;14.15;100.00;93837.47;5057478;28;20544;-61
2021/08/06 05:52:47;;;;;;;1.80;1.70;;;;;;;14.13;100.00;93842.38;5075233;28;20024;-62
2021/08/06 05:55:16;;;;;;;2.72;2.00;;;;;;;14.15;100.00;93845.53;5075300;28;20137;-62
2021/08/06 05:57:43;;;;;;;2.10;1.90;;;;;;;14.20;100.00;93839.19;5075175;28;20368;-62
2021/08/06 06:00:12;;;;;;;3.13;2.08;;;;;;;14.24;100.00;93836.69;5055526;28;20020;-62
2021/08/06 06:02:38;;;;;;;4.03;2.80;;;;;;;14.20;100.00;93848.06;5073918;28;20035;-62
2021/08/06 06:05:05;;;;;;;3.10;2.05;;;;;;;14.17;100.00;93845.22;5057343;28;20025;-62
2021/08/06 06:07:42;;;;;;;2.00;1.80;;;;;;;14.21;100.00;93855.03;5056927;28;20494;-62
2021/08/06 06:10:11;;;;;;;2.05;1.85;;;;;;;14.25;100.00;93855.22;5057104;28;20051;-62
2021/08/06 06:12:41;;;;;;;5.18;2.00;;;;;;;14.33;100.00;93859.81;5075045;28;20021;-62
2021/08/06 06:15:12;;;;;;;2.85;2.10;;;;;;;14.40;100.00;93854.72;5074893;28;20494;-62
2021/08/06 06:17:40;;;;;;;2.92;1.90;;;;;;;14.44;100.00;93854.88;5057011;28;20500;-61
2021/08/06 06:20:18;;;;;;;3.50;2.20;;;;;;;14.49;100.00;93852.06;5057184;28;20060;-62
2021/08/06 06:22:44;;;;;;;5.18;2.05;;;;;;;14.56;100.00;93851.56;5074964;28;20028;-62
2021/08/06 06:25:12;;;;;;;3.15;2.00;;;;;;;14.61;100.00;93862.97;5056733;28;20425;-62
2021/08/06 06:27:55;;;;;;;2.53;1.98;;;;;;;14.71;100.00;93859.16;5074718;28;20036;-62
2021/08/06 06:30:29;;;;;;;3.75;2.38;;;;;;;14.79;100.00;93861.03;5056812;28;20108;-62
2021/08/06 06:33:00;;;;;;;2.22;1.88;;;;;;;14.88;100.00;93863.72;5056940;28;20503;-62
2021/08/06 06:35:29;;;;;;;3.03;1.98;;;;;;;14.91;100.00;93854.97;5066080;28;20474;-62
2021/08/06 06:38:00;;;;;;;3.55;2.08;;;;;;;14.96;100.00;93860.97;5052150;28;20020;-62
2021/08/06 06:40:29;;;;;;;4.78;1.90;;;;;;;15.01;100.00;93858.13;5056507;28;20468;-62
2021/08/06 06:43:00;;;;;;;2.10;1.90;;;;;;;15.14;100.00;93850.16;5056204;28;20495;-62
2021/08/06 06:45:31;;;;;;;2.92;1.98;;;;;;;15.37;100.00;93852.25;5074054;28;20398;-63
2021/08/06 06:47:56;;;;;;;5.00;2.08;;;;;;;15.43;100.00;93860.19;5074023;28;20028;-63
2021/08/06 06:50:42;;;;;;;2.80;2.08;;;;;;;15.43;100.00;93855.59;5074233;28;20116;-63
2021/08/06 06:53:08;;;;;;;2.40;1.88;;;;;;;15.56;100.00;93846.47;5074100;28;20472;-62
2021/08/06 06:55:33;;;;;;;3.58;2.08;;;;;;;15.71;100.00;93847.03;5056006;28;20089;-63
2021/08/06 06:57:59;;;;;;;4.40;2.00;;;;;;;15.80;100.00;93842.38;5074085;28;20032;-62
2021/08/06 07:00:30;;;;;;;3.75;2.17;;;;;;;15.92;100.00;93845.16;5074019;28;20029;-63
2021/08/06 07:03:16;;;;;;;2.90;1.90;;;;;;;15.96;100.00;93834.50;5056201;28;20136;-63
2021/08/06 07:05:44;;;;;;;2.63;1.92;;;;;;;16.04;100.00;93844.44;5073847;28;20425;-63
2021/08/06 07:08:12;;;;;;;2.47;2.00;;;;;;;16.05;100.00;93835.22;5056401;28;20566;-63
2021/08/06 07:10:43;;;;;;;2.55;1.90;;;;;;;16.12;100.00;93843.59;5056286;28;20058;-62
2021/08/06 07:13:11;;;;;;;2.53;2.33;;;;;;;16.12;100.00;93838.19;5073898;28;20035;-62
2021/08/06 07:15:40;;;;;;;2.00;1.75;;;;;;;16.15;100.00;93838.31;5073727;28;20024;-63
2021/08/06 07:18:13;;;;;;;2.88;1.98;;;;;;;16.22;100.00;93844.00;5038926;28;20098;-63
2021/08/06 07:20:41;;;;;;;1.80;1.70;;;;;;;16.21;100.00;93830.81;5073666;28;20490;-63
2021/08/06 07:23:06;;;;;;;3.08;1.85;;;;;;;16.21;100.00;93841.63;5039351;28;20093;-62
2021/08/06 07:25:35;;;;;;;2.95;1.92;;;;;;;16.20;100.00;93843.53;5055686;28;20028;-63
2021/08/06 07:28:15;;;;;;;2.38;1.58;;;;;;;16.20;100.00;93835.44;5055840;28;20024;-63
2021/08/06 07:30:40;;;;;;;2.85;1.50;;;;;;;16.08;100.00;93839.97;5055778;28;20024;-64
2021/08/06 07:33:06;;;;;;;2.70;1.70;;;;;;;16.07;100.00;93828.38;5048299;28;20040;-63
2021/08/06 07:35:33;;;;;;;2.47;1.80;;;;;;;16.01;100.00;93837.78;5051135;28;20426;-64
2021/08/06 07:38:00;;;;;;;2.53;1.30;;;;;;;15.95;100.00;93828.28;5054360;28;20029;-64
2021/08/06 07:40:28;;;;;;;2.40;1.67;;;;;;;15.98;100.00;93824.97;5052428;28;20502;-64
2021/08/06 07:42:56;;;;;;;2.13;1.58;;;;;;;16.07;100.00;93814.88;5052451;28;20028;-62
2021/08/06 07:45:23;;;;;;;2.08;1.77;;;;;;;16.21;100.00;93814.59;5051467;28;20040;-64
2021/08/06 07:47:49;;;;;;;4.53;1.88;;;;;;;16.36;100.00;93796.97;5053985;28;20025;-63
2021/08/06 07:50:19;;;;;;;2.50;1.42;;;;;;;16.64;100.00;93776.38;5036298;28;20083;-62
2021/08/06 07:52:46;;;;;;;1.90;1.40;;;;;;;16.91;100.00;93753.31;5034369;28;20056;-62
2021/08/06 07:55:18;;;;;;;1.85;1.50;;;;;;;16.92;100.00;93744.09;5051873;28;20028;-63
2021/08/06 07:57:44;;;;;;;2.60;1.42;;;;;;;17.02;100.00;93740.16;5036623;28;20377;-63
2021/08/06 08:00:10;;;;;;;2.45;1.63;;;;;;;17.01;100.00;93727.75;5051776;28;20023;-62
2021/08/06 08:02:37;;;;;;;1.42;1.33;;;;;;;17.07;100.00;93723.72;5036419;28;20036;-62
2021/08/06 08:05:07;;;;;;;2.28;1.60;;;;;;;17.07;100.00;93727.22;5035474;28;20029;-63
2021/08/06 08:07:32;;;;;;;4.10;1.65;;;;;;;17.02;100.00;93729.34;5071226;28;20031;-63
2021/08/06 08:09:57;;;;;;;7.07;2.17;;;;;;;17.09;100.00;93733.06;5037988;28;20107;-62
2021/08/06 08:12:23;;;;;;;8.65;2.55;;;;;;;17.08;100.00;93731.47;5072534;28;20028;-63
2021/08/06 08:14:49;;;;;;;6.40;2.22;;;;;;;17.13;100.00;93738.56;5038439;28;20024;-62
2021/08/06 08:17:23;;;;;;;4.93;1.40;;;;;;;17.06;100.00;93741.88;5054557;28;20041;-63
2021/08/06 08:19:51;;;;;;;1.45;1.33;;;;;;;17.20;100.00;93751.56;5054681;28;20032;-63
2021/08/06 08:22:16;;;;;;;6.85;1.85;;;;;;;17.24;100.00;93753.22;5072595;28;20044;-62
2021/08/06 08:24:43;;;;;;;4.60;1.50;;;;;;;17.23;100.00;93757.06;5072552;28;20062;-62
2021/08/06 08:27:12;;;;;;;2.45;1.40;;;;;;;17.30;100.00;93768.13;5054686;28;20123;-63
2021/08/06 08:29:41;;;;;;;1.50;1.27;;;;;;;17.39;100.00;93771.50;5072537;28;20063;-62
2021/08/06 08:32:06;;;;;;;2.55;1.58;;;;;;;17.76;100.00;93773.41;5054515;28;20062;-63
2021/08/06 08:34:39;;;;;;;3.65;1.55;;;;;;;17.86;100.00;93783.78;5071076;28;20024;-63
2021/08/06 08:37:11;;;;;;;1.73;1.38;;;;;;;17.80;100.00;93788.66;5061281;28;20067;-63
2021/08/06 08:39:38;;;;;;;2.92;1.50;;;;;;;17.79;100.00;93788.97;5054272;28;20032;-63
2021/08/06 08:42:03;;;;;;;1.88;1.38;;;;;;;18.19;100.00;93808.75;5072388;28;20434;-63
2021/08/06 08:44:36;;;;;;;5.97;1.60;;;;;;;18.31;100.00;93821.47;5072246;28;20016;-63
2021/08/06 08:47:03;;;;;;;2.95;1.40;;;;;;;18.38;100.00;93829.81;5072278;28;20020;-63
2021/08/06 08:49:31;;;;;;;5.63;1.83;;;;;;;18.42;100.00;93838.81;5072130;28;20029;-63
2021/08/06 08:51:57;;;;;;;3.15;1.70;;;;;;;18.40;100.00;93851.16;5072181;28;20489;-63
2021/08/06 08:54:28;;;;;;;4.30;1.48;;;;;;;18.45;100.00;93865.28;5072100;28;20120;-63
2021/08/06 08:56:54;;;;;;;3.00;1.58;;;;;;;18.55;100.00;93880.25;5072190;28;20387;-63
2021/08/06 08:59:21;;;;;;;3.60;1.70;;;;;;;18.67;100.00;93882.16;5072197;28;20024;-63
2021/08/06 09:01:47;;;;;;;4.70;1.83;;;;;;;19.07;100.00;93885.59;5072164;28;20025;-63
2021/08/06 09:04:24;;;;;;;4.35;1.70;;;;;;;19.38;100.00;93906.56;5072092;28;20028;-62
2021/08/06 09:06:50;;;;;;;1.80;1.40;;;;;;;19.48;100.00;93910.72;5072185;28;20033;-63
2021/08/06 09:09:20;;;;;;;1.90;1.38;;;;;;;19.43;100.00;93940.84;5076100;28;20020;-63
2021/08/06 09:11:51;;;;;;;3.50;1.60;;;;;;;19.38;100.00;93951.94;5076440;28;20028;-63
2021/08/06 09:14:30;;;;;;;2.22;1.50;;;;;;;19.29;100.00;93960.25;5076299;28;20082;-63
2021/08/06 09:17:01;;;;;;;3.03;1.30;;;;;;;19.13;100.00;93974.94;5075615;28;20052;-63
2021/08/06 09:19:30;;;;;;;3.70;1.63;;;;;;;19.20;100.00;93964.25;5076010;28;20375;-64
2021/08/06 09:22:26;;;;;;;3.10;1.50;;;;;;;19.32;100.00;93978.59;5075811;28;20118;-63
2021/08/06 09:25:17;;;;;;;2.30;1.50;;;;;;;19.36;100.00;93998.47;5055034;28;20430;-63
2021/08/06 09:27:49;;;;;;;2.13;1.45;;;;;;;19.33;100.00;93999.16;5058276;28;20372;-63
2021/08/06 09:30:32;;;;;;;1.95;1.50;;;;;;;19.27;100.00;94007.88;5075710;28;20021;-63
2021/08/06 09:32:57;;;;;;;6.43;1.50;;;;;;;19.23;100.00;94012.44;5075841;28;20090;-63
2021/08/06 09:35:26;;;;;;;1.90;1.40;;;;;;;19.12;100.00;94033.84;5067476;28;20503;-63
2021/08/06 09:37:56;;;;;;;4.25;1.50;;;;;;;18.97;100.00;94040.78;5036318;28;20064;-63
2021/08/06 09:40:35;;;;;;;1.98;1.30;;;;;;;18.95;100.00;94048.47;5075589;28;20039;-64
2021/08/06 09:43:04;;;;;;;1.83;1.20;;;;;;;18.85;100.00;94050.84;5041941;28;20024;-64
2021/08/06 09:45:40;;;;;;;2.80;1.15;;;;;;;18.81;100.00;94058.91;5075587;28;20020;-63
2021/08/06 09:48:16;;;;;;;2.33;1.20;;;;;;;18.75;100.00;94079.25;5075317;28;20556;-63
2021/08/06 09:50:44;;;;;;;3.15;1.40;;;;;;;18.89;100.00;94070.78;5075247;28;20033;-64
2021/08/06 09:53:11;;;;;;;4.57;1.80;;;;;;;18.94;100.00;94071.31;5075471;28;20438;-63
2021/08/06 09:55:38;;;;;;;3.45;1.40;;;;;;;18.93;100.00;94071.66;5075284;28;20025;-63
2021/08/06 09:58:10;;;;;;;3.13;1.38;;;;;;;18.95;100.00;94064.75;5057505;28;20049;-63
2021/08/06 10:00:41;;;;;;;2.95;1.55;;;;;;;18.86;100.00;94063.28;5057088;28;20024;-63
2021/08/06 10:03:07;;;;;;;4.03;1.40;;;;;;;18.79;100.00;94066.59;5075144;28;20021;-63
2021/08/06 10:05:32;;;;;;;4.97;1.73;;;;;;;18.74;100.00;94066.81;5075164;28;20020;-62
2021/08/06 10:08:02;;;;;;;3.53;1.52;;;;;;;18.82;100.00;94060.47;5075098;28;20121;-62
2021/08/06 10:10:36;;;;;;;3.20;1.40;;;;;;;18.82;100.00;94047.72;5068420;28;20075;-63
2021/08/06 10:13:03;;;;;;;2.03;1.25;;;;;;;18.90;100.00;94053.34;5038038;28;20025;-62
2021/08/06 10:15:29;;;;;;;1.80;1.10;;;;;;;19.04;100.00;94060.00;5038457;28;20349;-63
2021/08/06 10:17:56;;;;;;;3.33;1.30;;;;;;;19.04;100.00;94068.13;5054195;28;20057;-59
2021/08/06 10:20:25;;;;;;;4.05;1.55;;;;;;;19.01;100.00;94066.09;5038730;28;20122;-57
2021/08/06 10:22:51;;;;;;;4.30;1.55;;;;;;;18.95;100.00;94072.09;5054515;28;20021;-62
2021/08/06 10:25:20;;;;;;;2.58;1.30;;;;;;;18.80;100.00;94079.03;5053849;28;20029;-60
2021/08/06 10:27:50;;;;;;;2.15;1.58;;;;;;;18.78;100.00;94068.53;5051652;28;20032;-59
2021/08/06 10:30:30;;;;;;;3.20;1.35;;;;;;;18.89;100.00;94074.28;5054442;28;20478;-60
2021/08/06 10:33:06;;;;;;;5.05;1.58;;;;;;;18.99;100.00;94083.84;5056165;28;20036;-62
2021/08/06 10:36:04;;;;;;;2.67;1.50;;;;;;;19.15;100.00;94071.16;5047250;28;20032;-62
2021/08/06 10:38:39;;;;;;;2.03;1.38;;;;;;;19.55;100.00;94057.59;5049237;28;20612;-62
2021/08/06 10:41:25;;;;;;;3.83;1.40;;;;;;;19.61;100.00;94069.00;5074464;28;20024;-62
2021/08/06 10:44:19;;;;;;;3.10;1.35;;;;;;;19.74;100.00;94059.63;5056899;28;20495;-61
2021/08/06 10:47:02;;;;;;;2.00;1.45;;;;;;;19.83;100.00;94052.13;5035280;28;20041;-58
2021/08/06 10:49:40;;;;;;;;;;;;;;;20.02;100.00;94047.94;5056652;28;20024;-55
2021/08/06 10:52:20;;;;;;;1.98;1.23;;;;;;;20.03;100.00;94058.47;5074392;28;19912;-56
2021/08/06 10:54:47;;;;;;;5.82;1.80;;;;;;;19.99;100.00;94057.59;5074748;28;20455;-58
2021/08/06 10:57:28;;;;;;;2.47;1.42;;;;;;;20.17;100.00;94077.06;5073957;28;20055;-55
2021/08/06 11:00:02;;;;;;;1.48;1.05;;;;;;;20.21;100.00;94067.88;5056358;28;20023;-57
2021/08/06 11:02:40;;;;;;;2.15;1.38;;;;;;;20.23;100.00;94046.56;5074146;28;20386;-54
2021/08/06 11:05:36;;;;;;;3.95;1.50;;;;;;;20.33;100.00;94056.13;5056230;28;20028;-56
2021/08/06 11:08:04;;;;;;;3.92;1.45;;;;;;;20.47;100.00;94053.00;5073960;28;20016;-60
2021/08/06 11:10:48;;;;;;;4.78;1.65;;;;;;;20.53;100.00;94065.19;5056075;28;20024;-58
2021/08/06 11:13:32;;;;;;;2.08;1.23;;;;;;;20.52;100.00;94090.81;5073653;28;20017;-60
2021/08/06 11:16:09;;;;;;;4.35;1.52;;;;;;;20.53;100.00;94076.06;5073492;28;20028;-60
2021/08/06 11:18:41;;;;;;;3.10;1.50;;;;;;;20.42;100.00;94091.31;5055556;28;20170;-62
2021/08/06 11:21:12;;;;;;;3.38;1.67;;;;;;;20.37;100.00;94094.28;5073966;28;20024;-61
2021/08/06 11:23:40;;;;;;;2.78;1.40;;;;;;;20.34;100.00;94087.63;5073508;28;20028;-60
2021/08/06 11:26:12;;;;;;;2.22;1.40;;;;;;;20.37;100.00;94095.06;5055466;28;20031;-59
2021/08/06 11:28:38;;;;;;;2.97;1.25;;;;;;;20.40;100.00;94093.56;5073532;28;20021;-58
2021/08/06 11:31:20;;;;;;;1.88;1.38;;;;;;;20.27;100.00;94093.66;5073491;28;20036;-59
2021/08/06 11:34:16;;;;;;;2.77;1.27;;;;;;;20.31;100.00;94074.72;5073626;28;20072;-59
2021/08/06 11:36:42;;;;;;;2.17;1.30;;;;;;;20.40;100.00;94099.00;5059648;28;20261;-58
2021/08/06 11:39:15;;;;;;;1.90;1.23;;;;;;;20.51;100.00;94095.47;5073309;28;20029;-56
2021/08/06 11:41:51;;;;;;;2.72;1.60;;;;;;;20.60;100.00;94054.47;5055340;28;20029;-57